Levi, Texas
Current Conditions -  °F | °C
As of 10:55 AM on Thursday 30 Oct 2014 (Local Time) from KPWG Reporting Station
Few Clouds Few Clouds  
Wind Chill: 68°   Ceiling: Unl
Heat Index: 68°   Visibility: 10mi
Dew Point: 48°   Wind: 12mph
Humidity: 49%   Direction: 150°SSE
Pressure: 30.19"   Gusts: NA
Location:  31.3976°N, 97.22°W
Report Text: KPWG 301555Z AUTO 15010KT 10SM FEW050 20/09 A3019 RMK AO1
Loading
Personal Weather Stations






























Interactive Weather Map
Tropical Storm Tracking
New forecast layout! Learn more

10-Day Weather Forecast

Advertisements
Track Severe Weather on mobile